Time;durP1;ratioP1;P1;durP2;ratioP2;P2;SDS_P1;SDS_P2;PMS_P1;PMS_P2;Temp;Humidity;BMP_temperature;BMP_pressure;BME280_temperature;BME280_humidity;BME280_pressure;Samples;Min_cycle;Max_cycle;Signal;HPM_P1;HPM_P2
2023/01/15 00:00:17;;;;;;;;;;;;;;;5.69;100.00;98041.34;4182452;34;19969;-75
2023/01/15 00:03:04;;;;;;;;;;;;;;;5.81;100.00;98036.75;4163924;34;19951;-73
2023/01/15 00:05:34;;;;;;;;;;;;;;;5.85;100.00;98033.59;4180512;34;19960;-74
2023/01/15 00:08:02;;;;;;;;;;;;;;;5.95;100.00;98033.75;4192343;34;19995;-75
2023/01/15 00:10:30;;;;;;;;;;;;;;;5.76;100.00;98015.31;4182729;34;20019;-74
2023/01/15 00:12:56;;;;;;;;;;;;;;;5.98;100.00;98001.22;4234311;33;19970;-74
2023/01/15 00:15:24;;;;;;;;;;;;;;;5.65;100.00;98002.84;4209418;33;19974;-73
2023/01/15 00:17:52;;;;;;;;;;;;;;;5.58;100.00;98007.53;4209316;33;20165;-74
2023/01/15 00:20:19;;;;;;;;;;;;;;;5.86;100.00;98008.50;4221243;33;20046;-74
2023/01/15 00:22:46;;;;;;;;;;;;;;;5.76;100.00;97993.94;4219369;33;19956;-74
2023/01/15 00:27:59;;;;;;;;;;;;;;;5.83;100.00;97973.19;4250734;33;20296;-74
2023/01/15 00:30:27;;;;;;;;;;;;;;;5.61;100.00;97975.00;4254217;33;19950;-75
2023/01/15 00:32:54;;;;;;;;;;;;;;;5.71;100.00;97967.16;4266313;33;20432;-75
2023/01/15 00:35:22;;;;;;;;;;;;;;;5.87;100.00;97962.03;4262899;33;19981;-74
2023/01/15 00:37:50;;;;;;;;;;;;;;;5.60;100.00;97962.69;4266719;33;20100;-74
2023/01/15 00:40:19;;;;;;;;;;;;;;;5.78;100.00;97942.94;4266772;33;19949;-73
2023/01/15 00:42:46;;;;;;;;;;;;;;;5.67;100.00;97941.97;4279215;33;19950;-75
2023/01/15 00:45:14;;;;;;;;;;;;;;;5.62;100.00;97934.69;4275493;33;19985;-73
2023/01/15 00:47:42;;;;;;;;;;;;;;;5.62;100.00;97950.72;4243952;33;20067;-74
2023/01/15 00:50:11;;;;;;;;;;;;;;;5.59;100.00;97961.09;4247980;33;19974;-73
2023/01/15 00:52:39;;;;;;;;;;;;;;;5.75;100.00;97952.25;4236669;33;19942;-74
2023/01/15 00:55:06;;;;;;;;;;;;;;;5.88;100.00;97948.44;4237202;33;20087;-73
2023/01/15 00:57:34;;;;;;;;;;;;;;;5.91;100.00;97952.47;4247757;33;20076;-73
2023/01/15 01:00:03;;;;;;;;;;;;;;;5.75;100.00;97932.75;4249798;33;19968;-74
2023/01/15 03:00:12;;;;;;;;;;;;;;;6.04;100.00;97743.72;5023449;28;19973;31
2023/01/15 03:02:48;;;;;;;;;;;;;;;5.84;100.00;97744.28;4253622;33;19951;-74
2023/01/15 03:05:17;;;;;;;;;;;;;;;5.89;100.00;97730.16;4252374;33;19946;-73
2023/01/15 03:07:56;;;;;;;;;;;;;;;6.04;100.00;97735.69;4261512;33;19985;-73
2023/01/15 03:10:32;;;;;;;;;;;;;;;5.81;100.00;97734.09;4264624;33;19953;-74
2023/01/15 03:13:03;;;;;;;;;;;;;;;5.92;100.00;97735.00;4257694;33;19954;-73
2023/01/15 03:18:43;;;;;;;;;;;;;;;6.13;100.00;97710.12;4244835;33;20357;-72
2023/01/15 03:21:12;;;;;;;;;;;;;;;5.96;100.00;97704.06;4261746;33;19969;-73
2023/01/15 03:23:44;;;;;;;;;;;;;;;5.92;100.00;97721.63;4251501;33;19999;-73
2023/01/15 03:26:10;;;;;;;;;;;;;;;5.80;100.00;97717.25;4253272;33;19965;-73
2023/01/15 03:28:38;;;;;;;;;;;;;;;5.91;100.00;97701.34;4251160;33;19948;-73
2023/01/15 03:31:05;;;;;;;;;;;;;;;5.86;100.00;97709.31;4261836;33;19979;-73
2023/01/15 03:33:32;;;;;;;;;;;;;;;5.88;100.00;97664.44;4274834;33;19933;-74
2023/01/15 03:35:59;;;;;;;;;;;;;;;6.18;100.00;97691.47;4280250;33;20004;-72
2023/01/15 03:38:29;;;;;;;;;;;;;;;5.95;100.00;97691.75;4281166;33;19963;-74
2023/01/15 03:41:13;;;;;;;;;;;;;;;6.16;100.00;97677.56;4278453;33;20110;-72
2023/01/15 03:44:00;;;;;;;;;;;;;;;6.09;100.00;97679.62;4273271;33;19972;-73
2023/01/15 03:46:34;;;;;;;;;;;;;;;5.93;100.00;97661.81;4291359;33;19990;-72
2023/01/15 03:49:10;;;;;;;;;;;;;;;5.86;100.00;97646.00;4285753;33;20337;-73
2023/01/15 03:51:41;;;;;;;;;;;;;;;5.93;100.00;97649.25;4278158;33;19941;-72
2023/01/15 03:54:12;;;;;;;;;;;;;;;6.13;100.00;97656.69;4284019;33;19992;-73
2023/01/15 03:56:54;;;;;;;;;;;;;;;6.09;100.00;97660.91;4295730;33;20362;-73
2023/01/15 03:59:27;;;;;;;;;;;;;;;6.04;100.00;97671.56;4291600;33;19959;-73
2023/01/15 04:01:54;;;;;;;;;;;;;;;6.23;100.00;97665.88;4282959;33;20319;-73
2023/01/15 04:04:22;;;;;;;;;;;;;;;6.26;100.00;97663.47;4285248;33;19959;-73
2023/01/15 04:06:49;;;;;;;;;;;;;;;6.29;100.00;97656.81;4286205;33;19945;-73
2023/01/15 04:09:16;;;;;;;;;;;;;;;6.15;100.00;97646.53;4291657;33;20322;-73
2023/01/15 04:11:43;;;;;;;;;;;;;;;6.44;100.00;97642.75;4293674;33;19951;-73
2023/01/15 04:14:12;;;;;;;;;;;;;;;6.48;100.00;97642.00;4295500;33;20743;-73
2023/01/15 04:16:39;;;;;;;;;;;;;;;6.37;100.00;97651.00;4295468;33;19948;-73
2023/01/15 04:19:06;;;;;;;;;;;;;;;6.50;100.00;97628.38;4278356;33;19945;-73
2023/01/15 04:21:33;;;;;;;;;;;;;;;6.50;100.00;97629.16;4279869;33;19955;-72
2023/01/15 04:23:59;;;;;;;;;;;;;;;6.64;100.00;97634.09;4291746;33;19945;-73
2023/01/15 04:26:25;;;;;;;;;;;;;;;6.60;100.00;97632.97;4288234;33;19967;-72
2023/01/15 04:28:52;;;;;;;;;;;;;;;6.78;100.00;97645.94;4280616;33;20409;-73
2023/01/15 04:31:18;;;;;;;;;;;;;;;6.76;100.00;97626.62;4280752;33;19949;-73
2023/01/15 04:33:45;;;;;;;;;;;;;;;6.79;100.00;97636.81;4278597;33;20413;-71
2023/01/15 04:36:11;;;;;;;;;;;;;;;6.79;100.00;97603.94;4280224;33;19969;-73
2023/01/15 04:38:37;;;;;;;;;;;;;;;6.89;100.00;97610.13;4280426;33;19975;-73
2023/01/15 04:44:07;;;;;;;;;;;;;;;6.82;100.00;97614.09;4279729;33;19984;-74
2023/01/15 04:46:35;;;;;;;;;;;;;;;7.07;100.00;97608.06;4280749;33;19959;-73
2023/01/15 04:49:01;;;;;;;;;;;;;;;7.16;100.00;97614.50;4289606;33;19945;-73
2023/01/15 04:51:27;;;;;;;;;;;;;;;7.11;100.00;97617.19;4299679;33;20263;-74
2023/01/15 04:53:54;;;;;;;;;;;;;;;6.97;100.00;97610.69;4285117;33;19971;-74
2023/01/15 04:56:20;;;;;;;;;;;;;;;7.05;100.00;97611.00;4293611;33;20037;-74
2023/01/15 04:58:46;;;;;;;;;;;;;;;7.00;100.00;97604.81;4284418;33;19937;-73
2023/01/15 05:01:13;;;;;;;;;;;;;;;7.11;100.00;97627.09;4300653;33;19949;-73
2023/01/15 05:03:40;;;;;;;;;;;;;;;7.11;100.00;97622.53;4310933;33;20296;-73
2023/01/15 05:06:06;;;;;;;;;;;;;;;7.20;100.00;97607.59;4313336;33;19964;-73
2023/01/15 05:08:35;;;;;;;;;;;;;;;7.30;100.00;97606.00;4309768;33;19972;-71
2023/01/15 05:11:03;;;;;;;;;;;;;;;7.37;100.00;97601.19;4301048;33;19940;-71
2023/01/15 05:13:32;;;;;;;;;;;;;;;7.30;100.00;97603.34;4300556;33;20056;-71
2023/01/15 05:16:15;;;;;;;;;;;;;;;7.09;100.00;97584.53;4306323;33;19961;-72
2023/01/15 05:18:42;;;;;;;;;;;;;;;6.94;100.00;97597.84;4314355;33;19958;-73
2023/01/15 05:21:22;;;;;;;;;;;;;;;6.93;100.00;97598.91;4313504;33;19956;-72
2023/01/15 05:23:49;;;;;;;;;;;;;;;6.95;100.00;97591.44;4301433;33;19984;-73
2023/01/15 05:26:16;;;;;;;;;;;;;;;6.87;100.00;97590.84;4307730;33;19960;-73
2023/01/15 05:28:45;;;;;;;;;;;;;;;6.85;100.00;97581.50;4304337;33;19949;-72
2023/01/15 05:31:14;;;;;;;;;;;;;;;6.96;100.00;97568.97;4304185;33;19962;-72
2023/01/15 05:33:41;;;;;;;;;;;;;;;6.97;100.00;97567.88;4306824;33;19957;-72
2023/01/15 05:36:12;;;;;;;;;;;;;;;7.07;100.00;97557.22;4314059;33;19960;-72
2023/01/15 05:38:39;;;;;;;;;;;;;;;6.95;100.00;97556.63;4300474;33;19945;-73
2023/01/15 05:43:59;;;;;;;;;;;;;;;6.87;100.00;97553.38;4304148;33;19966;-73
2023/01/15 05:46:26;;;;;;;;;;;;;;;7.01;100.00;97552.91;4313300;33;19964;-73
2023/01/15 05:48:52;;;;;;;;;;;;;;;6.97;100.00;97543.78;4313035;33;19961;-72
2023/01/15 05:51:18;;;;;;;;;;;;;;;6.80;100.00;97504.69;4281196;33;20053;-73
2023/01/15 05:53:45;;;;;;;;;;;;;;;6.90;100.00;97515.41;4282731;33;19957;-73
2023/01/15 05:56:11;;;;;;;;;;;;;;;6.76;100.00;97527.66;4279313;33;19937;-73
2023/01/15 05:58:37;;;;;;;;;;;;;;;6.97;100.00;97519.72;4275082;33;19950;-73
2023/01/15 06:01:08;;;;;;;;;;;;;;;6.94;100.00;97506.84;4279396;33;20331;-73
2023/01/15 06:03:35;;;;;;;;;;;;;;;6.96;100.00;97507.41;4282072;33;19953;-73
2023/01/15 06:06:02;;;;;;;;;;;;;;;6.88;100.00;97506.06;4281815;33;20020;-73
2023/01/15 06:08:28;;;;;;;;;;;;;;;7.15;100.00;97505.84;4281449;33;20024;-73
2023/01/15 06:10:55;;;;;;;;;;;;;;;7.15;100.00;97513.06;4280499;33;19941;-73
2023/01/15 06:13:21;;;;;;;;;;;;;;;7.09;100.00;97513.06;4279584;33;19964;-73
2023/01/15 06:15:54;;;;;;;;;;;;;;;7.19;100.00;97512.25;4279570;33;19959;-72
2023/01/15 06:18:22;;;;;;;;;;;;;;;7.14;100.00;97504.22;4266406;33;19938;-72
2023/01/15 06:20:48;;;;;;;;;;;;;;;7.35;100.00;97509.63;4266885;33;19942;-74
2023/01/15 06:23:16;;;;;;;;;;;;;;;7.28;100.00;97507.22;4277697;33;19953;-73
2023/01/15 06:25:42;;;;;;;;;;;;;;;7.31;100.00;97508.53;4281777;33;20361;-75
2023/01/15 06:28:09;;;;;;;;;;;;;;;7.34;100.00;97508.00;4280666;33;19952;-74
2023/01/15 06:30:36;;;;;;;;;;;;;;;7.36;100.00;97522.75;4281061;33;19964;-73
2023/01/15 06:33:03;;;;;;;;;;;;;;;7.51;100.00;97503.22;4280361;33;19970;-73
2023/01/15 06:35:29;;;;;;;;;;;;;;;7.45;100.00;97490.88;4264046;33;19949;-72
2023/01/15 06:37:55;;;;;;;;;;;;;;;7.67;100.00;97513.94;4259434;33;20093;-73
2023/01/15 06:40:22;;;;;;;;;;;;;;;7.58;100.00;97533.22;4257440;33;19957;-73
2023/01/15 06:48:23;;;;;;;;;;;;;;;7.65;100.00;97519.56;4262575;33;20064;-73
2023/01/15 06:50:50;;;;;;;;;;;;;;;7.86;100.00;97531.06;4281538;33;20303;-73
2023/01/15 06:53:16;;;;;;;;;;;;;;;7.84;100.00;97522.50;4265409;33;19955;-73
2023/01/15 06:55:42;;;;;;;;;;;;;;;7.85;100.00;97524.13;4267838;33;19954;-72
2023/01/15 06:58:08;;;;;;;;;;;;;;;7.80;100.00;97527.62;4267467;33;19972;-74
2023/01/15 07:00:34;;;;;;;;;;;;;;;7.73;100.00;97526.25;4267583;33;20325;-74
2023/01/15 07:03:01;;;;;;;;;;;;;;;7.75;100.00;97524.13;4267412;33;19983;-74
2023/01/15 07:05:27;;;;;;;;;;;;;;;7.92;100.00;97521.97;4265831;33;20013;-74
2023/01/15 07:07:54;;;;;;;;;;;;;;;7.98;100.00;97536.97;4281179;33;19961;-74
2023/01/15 07:10:20;;;;;;;;;;;;;;;7.88;100.00;97550.38;4280018;33;19988;-73
2023/01/15 07:12:46;;;;;;;;;;;;;;;7.90;100.00;97536.72;4267312;33;19946;-74
2023/01/15 07:15:12;;;;;;;;;;;;;;;7.92;100.00;97540.72;4266879;33;19956;-72
2023/01/15 07:17:39;;;;;;;;;;;;;;;7.74;100.00;97538.59;4280279;33;21237;-73
2023/01/15 07:20:05;;;;;;;;;;;;;;;7.93;100.00;97528.94;4235072;33;19957;-74
2023/01/15 07:22:31;;;;;;;;;;;;;;;7.77;100.00;97538.03;4209806;34;19947;-73
2023/01/15 07:24:58;;;;;;;;;;;;;;;7.65;100.00;97532.97;4200073;34;19943;-73
2023/01/15 07:27:24;;;;;;;;;;;;;;;7.73;100.00;97528.94;4195380;34;19961;-77
2023/01/15 07:29:51;;;;;;;;;;;;;;;7.69;100.00;97535.91;4210295;34;20727;-76
2023/01/15 07:32:17;;;;;;;;;;;;;;;7.58;100.00;97535.91;4209615;34;19943;-76
2023/01/15 07:34:43;;;;;;;;;;;;;;;7.55;100.00;97547.16;4211042;34;19947;-76
2023/01/15 07:37:10;;;;;;;;;;;;;;;7.56;100.00;97532.69;4209743;34;19996;-75
2023/01/15 07:39:36;;;;;;;;;;;;;;;7.34;100.00;97534.78;4208520;34;20335;-75
2023/01/15 07:50:20;;;;;;;;;;;;;;;7.41;100.00;97530.00;4224327;34;19939;-77
2023/01/15 07:52:47;;;;;;;;;;;;;;;7.39;100.00;97516.06;4219246;34;19962;-76
2023/01/15 07:55:13;;;;;;;;;;;;;;;7.41;100.00;97520.06;4215432;34;19964;-78
2023/01/15 07:57:40;;;;;;;;;;;;;;;7.40;100.00;97518.47;4229600;33;19960;-77
2023/01/15 08:00:10;;;;;;;;;;;;;;;7.54;100.00;97534.81;4232003;33;19952;-76
2023/01/15 08:02:38;;;;;;;;;;;;;;;7.40;100.00;97512.31;4220899;33;20352;-77
2023/01/15 08:05:05;;;;;;;;;;;;;;;7.33;100.00;97507.22;4221357;34;20341;-77
2023/01/15 08:07:35;;;;;;;;;;;;;;;7.21;100.00;97525.38;4222871;33;19951;-76
2023/01/15 08:10:01;;;;;;;;;;;;;;;7.25;100.00;97505.06;4224052;34;19956;-77
2023/01/15 08:15:12;;;;;;;;;;;;;;;7.52;100.00;97496.78;4223745;34;20347;-76
2023/01/15 08:17:49;;;;;;;;;;;;;;;7.39;100.00;97495.44;4222869;33;20013;-76
2023/01/15 08:20:17;;;;;;;;;;;;;;;7.43;100.00;97503.75;4224176;34;19951;-76
2023/01/15 08:22:44;;;;;;;;;;;;;;;7.31;100.00;97513.88;4220078;34;19946;-75
2023/01/15 08:25:11;;;;;;;;;;;;;;;7.14;100.00;97504.22;4208232;34;19979;-78
2023/01/15 08:27:39;;;;;;;;;;;;;;;7.26;100.00;97501.31;4202143;34;19947;-77
2023/01/15 08:30:07;;;;;;;;;;;;;;;7.25;100.00;97499.72;4203877;33;20254;-77
2023/01/15 08:32:33;;;;;;;;;;;;;;;7.05;100.00;97500.47;4236344;33;19952;-77
2023/01/15 08:34:59;;;;;;;;;;;;;;;6.90;100.00;97493.19;4236007;33;19951;-76
2023/01/15 08:37:25;;;;;;;;;;;;;;;6.81;100.00;97495.59;4237374;33;19954;-76
2023/01/15 08:39:52;;;;;;;;;;;;;;;6.93;100.00;97497.25;4237386;33;19989;-77
2023/01/15 08:42:19;;;;;;;;;;;;;;;7.09;100.00;97502.34;4237883;33;19998;-76
2023/01/15 08:44:45;;;;;;;;;;;;;;;6.96;100.00;97502.06;4220966;34;19952;-76
2023/01/15 08:47:12;;;;;;;;;;;;;;;6.72;100.00;97510.53;4207783;34;20234;-78
2023/01/15 08:49:38;;;;;;;;;;;;;;;6.66;100.00;97507.03;4210333;34;19956;-78
2023/01/15 08:52:05;;;;;;;;;;;;;;;6.88;100.00;97501.50;4209755;34;19938;-78
2023/01/15 08:54:30;;;;;;;;;;;;;;;6.71;100.00;97516.94;4209164;34;19957;-77
2023/01/15 08:56:58;;;;;;;;;;;;;;;6.62;100.00;97513.16;4221635;34;19982;-75
2023/01/15 08:59:24;;;;;;;;;;;;;;;6.71;100.00;97516.94;4217234;34;19942;-79
2023/01/15 09:01:51;;;;;;;;;;;;;;;6.76;100.00;97514.28;4203819;34;19951;-77
2023/01/15 09:04:18;;;;;;;;;;;;;;;6.37;100.00;97506.63;4210122;34;19939;-76
2023/01/15 09:06:45;;;;;;;;;;;;;;;6.29;100.00;97523.16;4199734;34;19947;-77
2023/01/15 09:09:11;;;;;;;;;;;;;;;6.52;100.00;97520.06;4196678;34;19967;-78
2023/01/15 09:11:41;;;;;;;;;;;;;;;6.62;100.00;97515.84;4209891;34;20820;-76
2023/01/15 09:14:07;;;;;;;;;;;;;;;6.36;100.00;97511.16;4208120;34;19988;-76
2023/01/15 09:16:35;;;;;;;;;;;;;;;6.29;100.00;97510.59;4198112;34;19991;-76
2023/01/15 09:19:01;;;;;;;;;;;;;;;6.27;100.00;97514.59;4193584;34;19983;-75
2023/01/15 09:21:27;;;;;;;;;;;;;;;6.22;100.00;97519.91;4193579;34;19958;-77
2023/01/15 09:23:53;;;;;;;;;;;;;;;6.28;100.00;97513.53;4204878;34;19947;-78
2023/01/15 09:26:33;;;;;;;;;;;;;;;6.37;100.00;97528.81;4208254;34;20322;-78
2023/01/15 09:29:00;;;;;;;;;;;;;;;6.19;100.00;97515.91;4207335;34;19955;-78
2023/01/15 09:31:27;;;;;;;;;;;;;;;6.23;100.00;97516.19;4207204;34;19962;-77
2023/01/15 09:33:53;;;;;;;;;;;;;;;6.18;100.00;97509.72;4212227;34;19952;-77
2023/01/15 09:36:28;;;;;;;;;;;;;;;6.02;100.00;97516.06;4240680;33;19989;-75
2023/01/15 09:38:54;;;;;;;;;;;;;;;6.18;100.00;97509.72;4235983;33;19942;-76
2023/01/15 09:44:25;;;;;;;;;;;;;;;5.98;100.00;97514.94;4235688;33;19942;-77
2023/01/15 09:47:10;;;;;;;;;;;;;;;6.13;100.00;97501.69;4236518;33;20025;-77
2023/01/15 09:49:45;;;;;;;;;;;;;;;6.02;100.00;97496.56;4201855;34;19957;-76
2023/01/15 09:52:30;;;;;;;;;;;;;;;6.03;100.00;97511.50;4191578;34;20524;-75
2023/01/15 09:55:10;;;;;;;;;;;;;;;5.98;100.00;97498.91;4169953;34;19948;-77
2023/01/15 09:57:37;;;;;;;;;;;;;;;6.02;100.00;97486.66;4169177;34;19951;-77
2023/01/15 10:00:05;;;;;;;;;;;;;;;5.79;100.00;97490.47;4169159;34;20334;-77
2023/01/15 10:02:47;;;;;;;;;;;;;;;5.95;100.00;97494.88;4170821;34;19958;-77
2023/01/15 10:05:32;;;;;;;;;;;;;;;5.99;100.00;97484.50;4155118;34;19953;-76
2023/01/15 10:08:00;;;;;;;;;;;;;;;5.93;100.00;97474.81;4151331;34;20070;-76
2023/01/15 10:10:32;;;;;;;;;;;;;;;5.96;100.00;97474.28;4154189;34;19945;-78
2023/01/15 10:13:02;;;;;;;;;;;;;;;5.87;100.00;97487.34;4155602;34;19953;-77
2023/01/15 10:15:31;;;;;;;;;;;;;;;5.83;100.00;97471.00;4148061;34;19950;-76
2023/01/15 10:17:58;;;;;;;;;;;;;;;5.94;100.00;97476.44;4166650;34;20343;-76
2023/01/15 10:20:39;;;;;;;;;;;;;;;5.83;100.00;97471.00;4167321;34;20316;-78
2023/01/15 10:23:06;;;;;;;;;;;;;;;5.78;100.00;97468.31;4173666;34;19956;-77
2023/01/15 10:25:40;;;;;;;;;;;;;;;5.97;100.00;97458.03;4202887;34;19962;-77
2023/01/15 10:28:22;;;;;;;;;;;;;;;5.76;100.00;97459.75;4224871;34;19943;-77
2023/01/15 10:30:52;;;;;;;;;;;;;;;6.02;100.00;97451.91;4209121;34;19969;-77
2023/01/15 10:33:27;;;;;;;;;;;;;;;5.77;100.00;97469.34;4219069;33;19955;-77
2023/01/15 10:35:59;;;;;;;;;;;;;;;5.97;100.00;97454.56;4222602;33;19957;-76
2023/01/15 10:38:41;;;;;;;;;;;;;;;5.85;100.00;97445.91;4216894;33;20257;-75
2023/01/15 10:41:06;;;;;;;;;;;;;;;5.77;100.00;97447.19;4212507;33;19979;-76
2023/01/15 10:43:46;;;;;;;;;;;;;;;5.85;100.00;97445.91;4213181;33;19950;-75
2023/01/15 10:46:14;;;;;;;;;;;;;;;5.91;100.00;97444.88;4210620;33;19955;-72
2023/01/15 10:48:40;;;;;;;;;;;;;;;5.82;100.00;97442.69;4231084;33;20011;-75
2023/01/15 10:51:33;;;;;;;;;;;;;;;5.97;100.00;97443.88;4246559;33;19954;-75
2023/01/15 10:54:04;;;;;;;;;;;;;;;5.82;100.00;97437.34;4243566;33;19938;-73
2023/01/15 10:56:31;;;;;;;;;;;;;;;5.94;100.00;97439.03;4242878;33;19981;-74
2023/01/15 10:59:00;;;;;;;;;;;;;;;5.94;100.00;97439.03;4250201;33;20069;-74
2023/01/15 11:01:27;;;;;;;;;;;;;;;5.89;100.00;97436.31;4247186;33;20034;-74
2023/01/15 11:03:53;;;;;;;;;;;;;;;6.15;100.00;97430.06;4243545;33;19946;-73
2023/01/15 11:06:21;;;;;;;;;;;;;;;5.97;100.00;97435.88;4238193;33;19997;-74
2023/01/15 11:08:52;;;;;;;;;;;;;;;6.16;100.00;97426.34;4243554;33;20338;-74
2023/01/15 11:20:15;;;;;;;;;;;;;;;5.98;100.00;97424.09;4260208;33;20049;-73
2023/01/15 11:22:42;;;;;;;;;;;;;;;6.00;100.00;97419.31;4258830;33;19946;-73
2023/01/15 11:25:09;;;;;;;;;;;;;;;6.10;100.00;97422.03;4261905;33;19949;-74
2023/01/15 11:27:36;;;;;;;;;;;;;;;5.96;100.00;97412.84;4256694;33;19942;-73
2023/01/15 11:30:04;;;;;;;;;;;;;;;6.25;100.00;97423.16;4254156;33;19950;-75
2023/01/15 11:32:35;;;;;;;;;;;;;;;6.34;100.00;97416.25;4254575;33;19993;-74
2023/01/15 11:35:08;;;;;;;;;;;;;;;6.29;100.00;97414.38;4251281;33;19946;-74
2023/01/15 11:37:34;;;;;;;;;;;;;;;6.26;100.00;97414.09;4253511;33;20272;-74
2023/01/15 11:40:08;;;;;;;;;;;;;;;6.61;100.00;97396.56;4253912;33;20379;-75
2023/01/15 11:51:06;;;;;;;;;;;;;;;6.50;100.00;97399.19;4251398;33;20397;-74
2023/01/15 11:53:33;;;;;;;;;;;;;;;6.53;100.00;97398.66;4250677;33;20012;-74
2023/01/15 11:56:01;;;;;;;;;;;;;;;6.73;100.00;97394.44;4248394;33;19981;-74
2023/01/15 11:58:30;;;;;;;;;;;;;;;6.85;100.00;97394.22;4250664;33;19950;-74
2023/01/15 12:00:58;;;;;;;;;;;;;;;6.95;100.00;97388.06;4400987;28;20237;-73
2023/01/15 12:03:28;;;;;;;;;;;;;;;6.64;100.00;97398.72;4259209;33;20278;-72
2023/01/15 12:05:58;;;;;;;;;;;;;;;6.85;100.00;97389.66;4244618;33;20247;-73
2023/01/15 12:08:32;;;;;;;;;;;;;;;6.62;100.00;97396.31;4239923;33;19956;-73
2023/01/15 12:11:10;;;;;;;;;;;;;;;6.84;100.00;97384.56;4244751;33;19954;-73
2023/01/15 12:13:39;;;;;;;;;;;;;;;6.77;100.00;97382.16;4243842;33;20228;-73
2023/01/15 12:16:08;;;;;;;;;;;;;;;6.74;100.00;97390.69;4236947;33;20522;-74
2023/01/15 12:18:34;;;;;;;;;;;;;;;7.04;100.00;97370.41;4237345;33;19942;-74
2023/01/15 12:21:13;;;;;;;;;;;;;;;6.96;100.00;97376.28;4235890;33;19960;-73
2023/01/15 12:23:42;;;;;;;;;;;;;;;6.79;100.00;97377.34;4236986;33;19966;-74
2023/01/15 12:26:22;;;;;;;;;;;;;;;6.80;100.00;97365.56;4236139;33;20442;-73
2023/01/15 12:29:08;;;;;;;;;;;;;;;6.78;100.00;97375.75;4216231;34;20055;-72
2023/01/15 12:31:41;;;;;;;;;;;;;;;6.94;100.00;97365.03;4190805;34;20060;-74
2023/01/15 12:34:15;;;;;;;;;;;;;;;6.73;100.00;97370.34;4194067;34;19957;-77
2023/01/15 12:36:46;;;;;;;;;;;;;;;7.08;100.00;97358.09;4196977;34;19951;-75
2023/01/15 12:39:25;;;;;;;;;;;;;;;7.25;100.00;97366.66;4206728;34;20026;-75
2023/01/15 12:45:03;;;;;;;;;;;;;;;6.91;100.00;97372.53;4209430;34;19971;-75
2023/01/15 12:47:35;;;;;;;;;;;;;;;6.81;100.00;97377.88;4211269;34;19965;-75
2023/01/15 12:50:21;;;;;;;;;;;;;;;7.04;100.00;97375.75;4210681;34;20025;-75
2023/01/15 12:52:51;;;;;;;;;;;;;;;7.11;100.00;97381.63;4205356;34;20012;-77
2023/01/15 12:55:39;;;;;;;;;;;;;;;7.28;100.00;97376.03;4214551;34;20004;-75
2023/01/15 12:58:12;;;;;;;;;;;;;;;6.95;100.00;97383.50;4220302;34;19984;-76
2023/01/15 13:00:40;;;;;;;;;;;;;;;7.03;100.00;97382.19;4224000;34;20118;-76
2023/01/15 13:03:19;;;;;;;;;;;;;;;6.93;100.00;97395.56;4210969;33;19962;-79
2023/01/15 13:05:51;;;;;;;;;;;;;;;7.16;100.00;97384.31;4222749;33;19960;-76
2023/01/15 13:08:30;;;;;;;;;;;;;;;7.23;100.00;97379.50;4220839;33;19943;-78
2023/01/15 13:10:56;;;;;;;;;;;;;;;7.18;100.00;97387.53;4223686;33;19955;-76
2023/01/15 13:13:24;;;;;;;;;;;;;;;7.17;100.00;97396.63;4218028;34;19944;-75
2023/01/15 13:15:55;;;;;;;;;;;;;;;7.08;100.00;97398.22;4220745;34;19977;-76
2023/01/15 13:18:21;;;;;;;;;;;;;;;7.18;100.00;97392.91;4217288;34;19970;-76
2023/01/15 13:20:50;;;;;;;;;;;;;;;7.13;100.00;97400.91;4221778;34;20069;-76
2023/01/15 13:23:22;;;;;;;;;;;;;;;7.02;100.00;97404.66;4221725;34;19951;-78
2023/01/15 13:25:55;;;;;;;;;;;;;;;6.99;100.00;97402.50;4217463;33;20029;-78
2023/01/15 13:28:21;;;;;;;;;;;;;;;7.14;100.00;97407.06;4208919;34;19963;-75
2023/01/15 13:31:12;;;;;;;;;;;;;;;7.35;100.00;97407.88;4211659;34;19998;-77
2023/01/15 13:33:38;;;;;;;;;;;;;;;7.33;100.00;97420.75;4214452;34;19974;-75
2023/01/15 13:36:10;;;;;;;;;;;;;;;7.46;100.00;97420.19;4225521;34;19948;-77
2023/01/15 13:38:40;;;;;;;;;;;;;;;7.33;100.00;97426.09;4225672;34;20332;-76
2023/01/15 13:41:07;;;;;;;;;;;;;;;7.28;100.00;97430.38;4225176;34;19946;-78
2023/01/15 13:43:35;;;;;;;;;;;;;;;7.14;100.00;97418.56;4238776;33;20340;-75
2023/01/15 13:46:03;;;;;;;;;;;;;;;7.16;100.00;97453.13;4238323;33;20323;-78
2023/01/15 13:48:34;;;;;;;;;;;;;;;7.10;100.00;97444.28;4240065;33;19954;-77
2023/01/15 13:51:01;;;;;;;;;;;;;;;7.48;100.00;97428.75;4239310;33;19992;-76
2023/01/15 13:53:31;;;;;;;;;;;;;;;7.41;100.00;97438.94;4238224;33;19999;-76
2023/01/15 13:55:58;;;;;;;;;;;;;;;7.26;100.00;97437.88;4240858;33;19951;-77
2023/01/15 13:58:26;;;;;;;;;;;;;;;7.14;100.00;97423.94;4240330;33;19952;-76
2023/01/15 14:01:10;;;;;;;;;;;;;;;7.40;100.00;97422.09;4240702;33;19939;-78
2023/01/15 14:03:37;;;;;;;;;;;;;;;7.03;100.00;97427.66;4237734;33;19968;-76
2023/01/15 14:06:05;;;;;;;;;;;;;;;7.24;100.00;97429.31;4238496;33;19935;-77
2023/01/15 14:11:29;;;;;;;;;;;;;;;7.14;100.00;97423.94;4238677;33;19956;-75
2023/01/15 14:14:16;;;;;;;;;;;;;;;7.19;100.00;97428.50;4239862;33;19956;-77
2023/01/15 14:16:57;;;;;;;;;;;;;;;6.97;100.00;97444.78;4237630;33;19946;-75
2023/01/15 14:19:30;;;;;;;;;;;;;;;7.08;100.00;97433.03;4227099;33;19976;-78
2023/01/15 14:22:11;;;;;;;;;;;;;;;6.97;100.00;97444.78;4224741;34;19954;-77
2023/01/15 14:24:57;;;;;;;;;;;;;;;7.14;100.00;97445.34;4223385;34;20061;-76
2023/01/15 14:27:38;;;;;;;;;;;;;;;7.03;100.00;97451.75;4227065;34;19943;-78
2023/01/15 14:30:04;;;;;;;;;;;;;;;7.09;100.00;97466.75;4226218;34;19942;-76
2023/01/15 14:32:46;;;;;;;;;;;;;;;7.03;100.00;97460.56;4227086;34;20261;-76
2023/01/15 14:35:14;;;;;;;;;;;;;;;7.35;100.00;97466.78;4227926;34;19950;-77
2023/01/15 14:37:47;;;;;;;;;;;;;;;7.10;100.00;97455.00;4208588;34;19995;-78
2023/01/15 14:40:24;;;;;;;;;;;;;;;6.95;100.00;97453.06;4209038;34;20331;-77
2023/01/15 14:43:03;;;;;;;;;;;;;;;7.02;100.00;97455.50;4211541;34;20406;-77
2023/01/15 14:45:35;;;;;;;;;;;;;;;6.94;100.00;97461.38;4211533;34;19988;-76
2023/01/15 14:48:03;;;;;;;;;;;;;;;7.16;100.00;97459.25;4210466;34;19952;-76
2023/01/15 14:50:38;;;;;;;;;;;;;;;7.02;100.00;97455.50;4210480;34;20050;-77
2023/01/15 14:53:09;;;;;;;;;;;;;;;7.08;100.00;97462.47;4211048;34;19945;-77
2023/01/15 14:55:56;;;;;;;;;;;;;;;7.28;100.00;97467.06;4209550;34;19998;-75
2023/01/15 14:58:31;;;;;;;;;;;;;;;7.05;100.00;97468.34;4211566;34;19955;-77
2023/01/15 15:01:00;;;;;;;;;;;;;;;6.94;100.00;97469.38;4211108;34;20034;-75
2023/01/15 15:03:34;;;;;;;;;;;;;;;6.86;100.00;97470.72;4208360;34;19969;-77
2023/01/15 15:06:04;;;;;;;;;;;;;;;7.01;100.00;97472.63;4211181;34;19963;-76
2023/01/15 15:08:32;;;;;;;;;;;;;;;6.87;100.00;97473.13;4215850;34;19946;-77
2023/01/15 15:10:59;;;;;;;;;;;;;;;6.55;100.00;97474.09;4222167;34;20049;-74
2023/01/15 15:13:30;;;;;;;;;;;;;;;6.33;100.00;97484.16;4225440;34;19958;-76
2023/01/15 15:16:18;;;;;;;;;;;;;;;6.76;100.00;97471.47;4225074;34;19950;-76
2023/01/15 15:18:47;;;;;;;;;;;;;;;6.47;100.00;97479.13;4231484;33;20363;-78
2023/01/15 15:21:19;;;;;;;;;;;;;;;6.73;100.00;97474.69;4239669;33;20021;-76
2023/01/15 15:23:51;;;;;;;;;;;;;;;6.39;100.00;97499.16;4238782;33;19956;-77
2023/01/15 15:26:38;;;;;;;;;;;;;;;6.66;100.00;97503.56;4237319;33;19989;-76
2023/01/15 15:29:12;;;;;;;;;;;;;;;6.61;100.00;97514.25;4238693;33;19942;-76
2023/01/15 15:31:52;;;;;;;;;;;;;;;6.40;100.00;97522.16;4238946;33;19962;-77
2023/01/15 15:34:34;;;;;;;;;;;;;;;6.40;100.00;97522.16;4238285;33;19991;-76
2023/01/15 15:37:05;;;;;;;;;;;;;;;6.63;100.00;97536.16;4238227;33;19958;-76
2023/01/15 15:39:49;;;;;;;;;;;;;;;6.33;100.00;97521.56;4238087;33;19969;-77
2023/01/15 15:51:03;;;;;;;;;;;;;;;6.27;100.00;97519.94;4237920;33;20004;-75
2023/01/15 15:53:30;;;;;;;;;;;;;;;6.39;100.00;97547.28;4236706;33;19960;-77
2023/01/15 15:55:59;;;;;;;;;;;;;;;6.50;100.00;97535.56;4237506;33;19942;-76
2023/01/15 15:58:32;;;;;;;;;;;;;;;6.72;100.00;97542.62;4238079;33;19953;-75
2023/01/15 16:01:00;;;;;;;;;;;;;;;6.66;100.00;97541.00;4240718;33;19950;-77
2023/01/15 16:03:27;;;;;;;;;;;;;;;6.34;100.00;97565.97;4239735;33;20015;-76